Time;durP1;ratioP1;P1;durP2;ratioP2;P2;SDS_P1;SDS_P2;PMS_P1;PMS_P2;Temp;Humidity;BMP_temperature;BMP_pressure;BME280_temperature;BME280_humidity;BME280_pressure;Samples;Min_cycle;Max_cycle;Signal;HPM_P1;HPM_P2
2021/01/13 00:02:23;;;;;;;15.43;7.13;;;;;;;0.11;93.59;98795.50;4943490;28;20059;-71
2021/01/13 00:04:48;;;;;;;15.32;6.97;;;;;;;0.10;93.36;98795.63;4952257;29;20035;-71
2021/01/13 00:07:14;;;;;;;14.60;5.78;;;;;;;0.09;93.39;98796.63;4937967;29;20027;-71
2021/01/13 00:09:40;;;;;;;13.43;6.25;;;;;;;0.00;92.74;98790.31;4956233;29;20500;-71
2021/01/13 00:12:06;;;;;;;16.30;7.13;;;;;;;0.28;92.88;98791.31;4956410;28;20031;-71
2021/01/13 00:14:31;;;;;;;12.38;6.68;;;;;;;0.16;92.68;98798.59;4945039;28;20500;-71
2021/01/13 00:16:57;;;;;;;15.50;7.05;;;;;;;0.09;92.83;98780.66;4946000;29;20032;-71
2021/01/13 00:19:22;;;;;;;15.20;6.90;;;;;;;0.28;92.43;98795.81;4938202;29;20036;-71
2021/01/13 00:21:52;;;;;;;11.95;5.47;;;;;;;0.24;91.95;98799.72;4947689;29;20054;-71
2021/01/13 00:24:18;;;;;;;10.98;5.22;;;;;;;0.23;91.90;98806.84;4952955;29;20051;-71
2021/01/13 00:26:44;;;;;;;12.95;6.03;;;;;;;0.24;91.94;98805.03;4953216;28;20085;-71
2021/01/13 00:29:11;;;;;;;15.15;5.38;;;;;;;0.19;92.29;98803.66;4954600;28;20489;-71
2021/01/13 00:31:36;;;;;;;11.02;4.75;;;;;;;0.21;91.54;98796.38;4943821;28;20391;-71
2021/01/13 00:34:02;;;;;;;13.30;4.70;;;;;;;0.26;90.30;98774.66;4953755;29;20050;-71
2021/01/13 00:36:29;;;;;;;10.07;4.90;;;;;;;0.28;90.41;98795.81;4956001;28;20090;-71
2021/01/13 00:38:54;;;;;;;9.75;5.55;;;;;;;0.28;90.62;98811.78;4950819;29;20584;-71
2021/01/13 00:41:20;;;;;;;7.55;3.95;;;;;;;0.25;91.06;98804.91;4955547;28;20049;-71
2021/01/13 00:43:49;;;;;;;10.00;4.50;;;;;;;0.00;90.52;98800.97;4956576;28;20393;-71
2021/01/13 00:46:14;;;;;;;15.45;7.78;;;;;;;-0.08;91.71;98822.03;4953171;28;20058;-71
2021/01/13 00:48:40;;;;;;;14.57;6.72;;;;;;;-0.27;91.94;98818.34;4952892;29;20031;-72
2021/01/13 00:51:05;;;;;;;11.95;6.93;;;;;;;-0.42;92.60;98814.38;4937164;29;20513;-71
2021/01/13 00:53:30;;;;;;;18.73;7.65;;;;;;;-0.51;92.74;98823.97;4951350;29;20094;-71
2021/01/13 00:55:56;;;;;;;11.93;6.97;;;;;;;-0.46;93.54;98828.91;4942949;28;20479;-72
2021/01/13 00:58:25;;;;;;;17.83;6.63;;;;;;;-0.48;93.35;98823.72;4950800;28;20145;-71
2021/01/13 01:00:51;;;;;;;12.60;5.78;;;;;;;-0.53;93.35;98846.34;4944957;29;20024;-72
2021/01/13 01:03:17;;;;;;;8.45;4.70;;;;;;;-0.48;93.25;98836.16;4952014;29;20066;-71
2021/01/13 01:05:42;;;;;;;23.80;5.47;;;;;;;-0.56;93.05;98834.16;4955697;28;20030;-71
2021/01/13 01:08:08;;;;;;;15.13;5.47;;;;;;;-0.61;93.14;98844.34;4953431;29;20028;-71
2021/01/13 01:10:33;;;;;;;16.20;5.50;;;;;;;-0.71;93.16;98836.34;4945566;28;20046;-71
2021/01/13 01:12:59;;;;;;;10.30;5.10;;;;;;;-0.64;93.49;98843.78;4956013;29;20115;-71
2021/01/13 01:15:25;;;;;;;8.63;4.72;;;;;;;-0.73;93.63;98843.59;4951223;29;20027;-72
2021/01/13 01:17:51;;;;;;;12.52;4.90;;;;;;;-0.82;93.71;98822.28;4959977;28;20508;-72
2021/01/13 01:20:17;;;;;;;11.50;5.40;;;;;;;-0.74;93.64;98841.91;4948360;28;20035;-71
2021/01/13 01:22:53;;;;;;;12.63;5.40;;;;;;;-0.64;93.87;98859.72;4942628;29;20036;-71
2021/01/13 01:25:20;;;;;;;13.95;5.78;;;;;;;-0.56;93.53;98857.25;4945581;28;20027;-71
2021/01/13 01:27:56;;;;;;;16.98;8.18;;;;;;;-0.54;93.63;98865.94;4944802;29;20030;-72
2021/01/13 01:30:22;;;;;;;16.85;8.02;;;;;;;-0.37;93.53;98875.94;4951678;29;20410;-71
2021/01/13 01:32:48;;;;;;;26.65;12.80;;;;;;;-0.29;93.24;98865.50;4960365;28;20490;-71
2021/01/13 01:35:14;;;;;;;33.13;13.50;;;;;;;-0.37;93.27;98870.63;4959699;28;20075;-71
2021/01/13 01:37:40;;;;;;;32.55;14.77;;;;;;;-0.39;92.97;98871.72;4958967;28;20031;-71
2021/01/13 01:40:08;;;;;;;26.67;12.20;;;;;;;-0.53;93.51;98862.28;4957498;28;20038;-71
2021/01/13 01:42:35;;;;;;;26.67;11.40;;;;;;;-0.37;93.63;98881.25;4950665;28;20036;-71
2021/01/13 01:45:01;;;;;;;17.63;9.88;;;;;;;-0.35;93.77;98886.47;4944323;29;20081;-69
2021/01/13 01:48:02;;;;;;;19.95;10.63;;;;;;;-0.27;93.75;98890.13;4949909;29;20027;-69
2021/01/13 01:50:29;;;;;;;16.23;9.25;;;;;;;-0.23;93.96;98880.09;4945875;28;20035;-73
2021/01/13 01:53:13;;;;;;;22.27;9.55;;;;;;;-0.10;93.45;98896.66;4950137;28;20397;-72
2021/01/13 01:56:02;;;;;;;17.20;9.68;;;;;;;-0.17;93.60;98894.66;4944339;29;20027;-72
2021/01/13 01:58:29;;;;;;;;;;;;;;;-0.16;93.39;98899.00;4940287;29;20081;-72
2021/01/13 02:00:59;;;;;;;22.08;10.43;;;;;;;-0.09;93.16;98902.81;4940389;29;19914;-72
2021/01/13 02:03:43;;;;;;;20.80;9.63;;;;;;;-0.21;93.28;98888.75;4945167;28;20568;-72
2021/01/13 02:06:13;;;;;;;15.70;8.77;;;;;;;-0.16;93.02;98891.00;4954140;28;20106;-72
2021/01/13 02:08:39;;;;;;;18.55;10.02;;;;;;;-0.04;93.18;98887.28;4959428;28;20034;-72
2021/01/13 02:11:05;;;;;;;20.05;10.68;;;;;;;-0.05;93.02;98885.63;4958417;28;20038;-72
2021/01/13 02:13:31;;;;;;;19.48;9.80;;;;;;;-0.17;93.02;98878.72;4962881;28;20031;-72
2021/01/13 02:15:56;;;;;;;17.25;9.05;;;;;;;-0.05;92.77;98904.25;4941756;28;20037;-72
2021/01/13 02:18:22;;;;;;;18.48;9.07;;;;;;;-0.05;92.91;98902.41;4949004;28;20045;-72
2021/01/13 02:20:53;;;;;;;18.27;9.70;;;;;;;-0.10;92.89;98907.28;4959034;28;20078;-73
2021/01/13 02:23:45;;;;;;;17.10;9.35;;;;;;;0.03;92.74;98915.06;4958317;28;20023;-72
2021/01/13 02:26:38;;;;;;;18.13;9.45;;;;;;;-0.09;92.94;98919.59;4939442;29;20493;-72
2021/01/13 02:29:03;;;;;;;17.40;9.57;;;;;;;0.02;93.21;98909.84;4968959;28;20074;-73
2021/01/13 02:31:34;;;;;;;20.17;10.23;;;;;;;-0.16;92.94;98914.94;4951038;29;20451;-72
2021/01/13 02:34:20;;;;;;;19.45;10.32;;;;;;;-0.34;93.46;98896.97;4955894;28;20038;-72
2021/01/13 02:37:23;;;;;;;21.08;10.95;;;;;;;-0.30;93.66;98906.34;4961233;29;20149;-73
2021/01/13 02:39:50;;;;;;;26.25;10.35;;;;;;;-0.36;93.81;98903.38;4979240;29;20050;-72
2021/01/13 02:42:23;;;;;;;21.23;11.07;;;;;;;-0.29;94.12;98907.19;4975291;28;20023;-72
2021/01/13 02:45:08;;;;;;;21.60;10.98;;;;;;;-0.30;93.87;98902.84;4975108;28;20020;-72
2021/01/13 02:48:13;;;;;;;19.30;10.05;;;;;;;-0.36;93.61;98909.53;4978687;28;20027;-73
2021/01/13 02:50:44;;;;;;;21.33;9.27;;;;;;;-0.27;93.96;98903.41;4993287;28;20024;-72
2021/01/13 02:53:09;;;;;;;18.63;8.98;;;;;;;-0.30;93.66;98909.00;4960912;28;20031;-70
2021/01/13 02:55:39;;;;;;;17.13;9.70;;;;;;;-0.35;93.55;98919.19;4948581;28;20066;-69
2021/01/13 02:58:08;;;;;;;18.70;8.80;;;;;;;-0.39;93.53;98915.13;4945216;28;20035;-70
2021/01/13 03:00:35;;;;;;;17.00;8.90;;;;;;;-0.36;93.44;98917.50;4942096;29;20031;-70
2021/01/13 03:03:01;;;;;;;14.93;8.57;;;;;;;-0.42;93.39;98898.56;4954587;28;20043;-70
2021/01/13 03:05:28;;;;;;;18.08;9.68;;;;;;;-0.40;93.65;98909.94;4943959;28;20106;-70
2021/01/13 03:07:55;;;;;;;18.88;9.70;;;;;;;-0.48;93.60;98903.44;4953591;29;20031;-69
2021/01/13 03:10:25;;;;;;;17.50;9.55;;;;;;;-0.63;93.86;98895.94;4956738;29;20098;-70
2021/01/13 03:13:02;;;;;;;23.80;10.77;;;;;;;-0.52;94.03;98917.16;4956627;28;20028;-71
2021/01/13 03:15:28;;;;;;;22.67;10.82;;;;;;;-0.65;93.95;98909.38;4956141;28;20028;-70
2021/01/13 03:18:03;;;;;;;20.08;10.63;;;;;;;-0.76;94.48;98917.38;4955377;28;20477;-70
2021/01/13 03:20:54;;;;;;;22.30;11.30;;;;;;;-0.84;94.54;98925.97;4952698;29;20446;-70
2021/01/13 03:23:28;;;;;;;22.02;10.43;;;;;;;-0.98;94.57;98919.16;4951761;28;20059;-70
2021/01/13 03:25:56;;;;;;;22.02;10.27;;;;;;;-0.96;94.65;98919.06;4940841;28;20058;-70
2021/01/13 03:28:25;;;;;;;21.85;10.45;;;;;;;-0.88;94.92;98924.56;4949333;29;20182;-70
2021/01/13 03:30:52;;;;;;;23.83;11.57;;;;;;;-0.83;94.58;98925.03;4953821;29;20485;-70
2021/01/13 03:33:23;;;;;;;18.98;11.63;;;;;;;-0.79;94.92;98933.56;4945862;28;20039;-70
2021/01/13 03:36:00;;;;;;;23.05;12.70;;;;;;;-0.70;95.04;98920.38;4956230;29;20102;-70
2021/01/13 03:38:30;;;;;;;24.52;12.50;;;;;;;-0.65;94.55;98933.28;4954916;28;20500;-71
2021/01/13 03:41:03;;;;;;;22.30;11.32;;;;;;;-0.76;94.70;98923.56;4952522;29;20498;-70
2021/01/13 03:43:37;;;;;;;18.25;8.98;;;;;;;-0.80;94.55;98932.75;4938736;29;20023;-70
2021/01/13 03:46:06;;;;;;;17.83;8.77;;;;;;;-0.88;94.42;98922.75;4938317;29;20024;-70
2021/01/13 03:48:49;;;;;;;20.20;10.82;;;;;;;-0.94;94.65;98922.44;4957720;28;20034;-72
2021/01/13 03:51:23;;;;;;;20.40;10.90;;;;;;;-0.90;94.68;98937.97;4943524;29;20032;-70
2021/01/13 03:53:51;;;;;;;24.95;11.27;;;;;;;-0.90;94.71;98935.31;4940888;29;20028;-70
2021/01/13 03:56:24;;;;;;;21.95;10.45;;;;;;;-0.83;94.72;98937.47;4957494;28;20035;-70
2021/01/13 03:58:50;;;;;;;16.40;9.05;;;;;;;-0.85;94.46;98924.31;4956226;28;20102;-70
2021/01/13 04:01:41;;;;;;;20.25;9.43;;;;;;;-0.79;94.68;98954.81;4943266;28;20068;-70
2021/01/13 04:04:24;;;;;;;17.08;9.27;;;;;;;-0.84;94.31;98941.91;4946663;29;20564;-71
2021/01/13 04:06:58;;;;;;;15.80;8.73;;;;;;;-0.74;94.12;98950.81;4956033;28;20038;-70
2021/01/13 04:09:24;;;;;;;14.25;8.68;;;;;;;-0.80;94.26;98948.69;4961918;28;20023;-70
2021/01/13 04:11:49;;;;;;;20.08;9.32;;;;;;;-0.83;93.94;98948.94;4962660;28;20034;-70
2021/01/13 04:14:18;;;;;;;13.65;8.38;;;;;;;-0.87;94.32;98950.16;4952180;29;20065;-71
2021/01/13 04:16:44;;;;;;;14.02;7.80;;;;;;;-0.92;94.33;98939.94;4955112;28;20062;-71
2021/01/13 04:19:09;;;;;;;16.98;7.55;;;;;;;-0.90;94.38;98943.28;4955811;29;20035;-71
2021/01/13 04:21:35;;;;;;;17.48;8.38;;;;;;;-0.76;94.35;98954.56;4940865;28;20118;-71
2021/01/13 04:24:02;;;;;;;14.80;7.97;;;;;;;-0.73;94.61;98951.69;4948955;29;20035;-71
2021/01/13 04:26:28;;;;;;;13.73;7.93;;;;;;;-0.71;94.22;98957.69;4956060;28;20050;-71
2021/01/13 04:28:54;;;;;;;15.65;7.85;;;;;;;-0.70;94.09;98957.56;4952307;29;20502;-71
2021/01/13 04:31:20;;;;;;;16.88;8.07;;;;;;;-0.69;94.54;98948.63;4947075;28;20027;-71
2021/01/13 04:33:46;;;;;;;18.38;7.32;;;;;;;-0.65;93.87;98948.38;4956179;29;20027;-71
2021/01/13 04:36:12;;;;;;;17.55;9.07;;;;;;;-0.65;93.92;98949.22;4954930;29;20112;-71
2021/01/13 04:38:38;;;;;;;20.17;9.35;;;;;;;-0.62;93.53;98972.03;4955941;28;20035;-71
2021/01/13 04:41:08;;;;;;;20.60;9.55;;;;;;;-0.60;93.88;98964.75;4949956;28;20055;-71
2021/01/13 04:43:49;;;;;;;22.10;8.93;;;;;;;-0.64;93.85;98969.50;4956384;28;20377;-71
2021/01/13 04:46:28;;;;;;;20.88;9.93;;;;;;;-0.53;93.58;98973.91;4951841;28;20050;-75
2021/01/13 04:49:05;;;;;;;18.23;8.93;;;;;;;-0.77;93.49;98945.75;4949433;28;20552;-75
2021/01/13 04:52:02;;;;;;;15.57;8.43;;;;;;;-0.61;93.61;98974.53;4965132;28;20031;-74
2021/01/13 04:54:30;;;;;;;16.42;8.32;;;;;;;-0.57;93.76;98972.50;4956086;28;20027;-75
2021/01/13 04:57:08;;;;;;;17.20;9.23;;;;;;;-0.50;93.50;98965.66;4970821;28;20437;-74
2021/01/13 05:00:09;;;;;;;18.40;8.70;;;;;;;-0.51;93.19;98982.59;4961187;28;20023;-73
2021/01/13 05:03:15;;;;;;;15.57;7.68;;;;;;;-0.48;93.12;98974.38;4958046;28;20031;-73
2021/01/13 05:05:53;;;;;;;15.57;7.68;;;;;;;-0.42;92.89;98980.97;4952318;28;20027;-73
2021/01/13 05:08:31;;;;;;;18.45;8.07;;;;;;;-0.48;92.67;98969.03;4951421;29;20047;-71
2021/01/13 05:11:08;;;;;;;20.05;8.20;;;;;;;-0.38;92.52;98983.25;4950539;28;20038;-72
2021/01/13 05:13:34;;;;;;;20.60;8.88;;;;;;;-0.24;91.90;98980.28;4951718;29;20042;-70
2021/01/13 05:16:08;;;;;;;21.48;9.85;;;;;;;-0.42;92.01;98967.69;4955225;28;20478;-70
2021/01/13 05:18:49;;;;;;;17.88;7.82;;;;;;;-0.33;91.68;98978.38;4965482;28;20031;-70
2021/01/13 05:21:22;;;;;;;15.15;7.80;;;;;;;-0.39;92.30;98975.38;4941802;28;20072;-69
2021/01/13 05:23:50;;;;;;;13.25;7.30;;;;;;;-0.42;92.05;98983.63;4954134;28;20397;-74
2021/01/13 05:26:17;;;;;;;15.85;7.88;;;;;;;-0.60;92.26;98968.28;4964524;28;20027;-70
2021/01/13 05:29:18;;;;;;;17.25;6.80;;;;;;;-0.42;92.10;98979.16;4955862;28;20042;-69
2021/01/13 05:31:45;;;;;;;8.65;5.15;;;;;;;-0.44;91.92;98978.47;4935377;28;20509;-73
2021/01/13 05:34:14;;;;;;;21.35;9.77;;;;;;;-0.44;91.79;98965.16;4953738;29;20055;-73
2021/01/13 05:36:43;;;;;;;19.38;8.27;;;;;;;-0.38;92.01;98972.63;4946618;28;20028;-73
2021/01/13 05:39:12;;;;;;;;;;;;;;;-0.40;91.97;98979.88;4951040;29;20602;-73
2021/01/13 05:41:39;;;;;;;17.30;8.60;;;;;;;-0.43;92.11;98977.47;4953061;28;20380;-73
2021/01/13 05:44:05;;;;;;;21.58;8.40;;;;;;;-0.61;92.03;98968.41;4940021;29;20036;-73
2021/01/13 05:46:40;;;;;;;19.27;8.13;;;;;;;-0.48;92.42;98979.69;4948243;28;20033;-74
2021/01/13 05:49:07;;;;;;;20.75;9.05;;;;;;;-0.58;92.50;98989.38;4953348;28;20031;-70
2021/01/13 05:51:32;;;;;;;15.80;7.93;;;;;;;-0.69;92.52;98967.22;4954839;28;20030;-70
2021/01/13 05:53:58;;;;;;;18.63;9.00;;;;;;;-0.72;92.91;98977.25;4954567;28;20023;-71
2021/01/13 05:56:23;;;;;;;17.05;9.30;;;;;;;-0.88;92.74;98981.19;4963769;28;20027;-71
2021/01/13 05:59:03;;;;;;;18.60;8.35;;;;;;;-1.05;93.18;98976.41;4972556;28;20035;-71
2021/01/13 06:02:11;;;;;;;17.20;7.82;;;;;;;-1.17;93.06;98956.19;4957856;28;20027;-72
2021/01/13 06:04:40;;;;;;;20.08;8.43;;;;;;;-1.12;93.47;98968.09;4953221;28;20041;-75
2021/01/13 06:07:22;;;;;;;23.80;9.48;;;;;;;-1.15;93.46;98978.16;4957791;28;20482;-72
2021/01/13 06:09:53;;;;;;;21.77;9.40;;;;;;;-1.29;93.93;98958.00;4970095;28;20393;-72
2021/01/13 06:12:19;;;;;;;19.85;8.90;;;;;;;-1.36;93.54;98960.34;4943903;28;20039;-72
2021/01/13 06:14:49;;;;;;;24.23;8.50;;;;;;;-1.25;93.86;98980.69;4938950;29;20028;-71
2021/01/13 06:17:19;;;;;;;14.88;7.70;;;;;;;-1.27;93.37;98971.16;4958615;28;20059;-71
2021/01/13 06:19:49;;;;;;;15.85;7.45;;;;;;;-1.35;93.38;98979.75;4957464;28;20517;-71
2021/01/13 06:22:15;;;;;;;13.73;7.50;;;;;;;-1.38;94.01;98983.50;4943306;29;20502;-71
2021/01/13 06:24:40;;;;;;;16.55;7.38;;;;;;;-1.55;93.74;98945.06;4956848;28;20023;-72
2021/01/13 06:27:16;;;;;;;18.50;7.18;;;;;;;-1.44;94.13;98964.56;4943215;28;20122;-71
2021/01/13 06:29:46;;;;;;;23.20;5.97;;;;;;;-1.35;94.05;98985.91;4961021;28;20034;-71
2021/01/13 06:32:30;;;;;;;11.38;5.72;;;;;;;-1.32;93.71;98987.47;4977340;28;20090;-73
2021/01/13 06:35:02;;;;;;;11.85;5.53;;;;;;;-1.42;93.31;98987.34;4973460;28;20038;-71
2021/01/13 06:37:46;;;;;;;16.30;5.40;;;;;;;-1.41;93.38;98980.25;4969582;28;20038;-74
2021/01/13 06:40:13;;;;;;;16.15;5.07;;;;;;;-1.38;93.36;98985.31;4993556;28;20039;-72
2021/01/13 06:42:39;;;;;;;14.25;5.18;;;;;;;-1.39;93.44;98978.28;4977675;28;20029;-74
2021/01/13 06:45:08;;;;;;;12.88;4.95;;;;;;;-1.47;93.13;98992.19;4982251;28;20034;-77
2021/01/13 06:47:34;;;;;;;10.45;5.10;;;;;;;-1.49;92.75;99003.88;4979508;28;20031;-74
2021/01/13 06:49:59;;;;;;;12.13;5.10;;;;;;;-1.59;93.14;98988.72;4978836;28;20110;-73
2021/01/13 06:52:32;;;;;;;16.52;5.53;;;;;;;-1.58;93.40;98995.69;4977707;28;20027;-71
2021/01/13 06:55:01;;;;;;;13.57;5.32;;;;;;;-1.58;93.18;99001.00;4955643;29;20062;-71
2021/01/13 06:57:31;;;;;;;13.30;4.68;;;;;;;-1.62;93.45;98994.25;4965563;28;20107;-72
2021/01/13 07:00:00;;;;;;;12.70;4.85;;;;;;;-1.77;92.56;98979.56;4959979;28;20712;-74
2021/01/13 07:02:33;;;;;;;10.48;5.20;;;;;;;-1.72;92.74;99011.88;4956449;28;20023;-70
2021/01/13 07:04:59;;;;;;;11.05;5.68;;;;;;;-1.71;93.40;99000.28;4963967;28;20030;-71
2021/01/13 07:07:25;;;;;;;13.50;5.18;;;;;;;-1.49;93.24;99012.72;4961093;28;20027;-71
2021/01/13 07:09:51;;;;;;;11.90;5.30;;;;;;;-1.50;92.76;99002.19;4958864;28;20050;-72
2021/01/13 07:12:35;;;;;;;12.20;4.90;;;;;;;-1.48;92.57;98995.81;4973197;28;20023;-74
2021/01/13 07:15:05;;;;;;;12.73;4.30;;;;;;;-1.35;92.78;99003.63;4955217;28;20093;-73
2021/01/13 07:17:33;;;;;;;13.35;6.13;;;;;;;-1.31;92.36;98994.47;4960226;28;20019;-73
2021/01/13 07:20:00;;;;;;;15.20;6.50;;;;;;;-1.17;92.37;99009.28;4957163;28;20102;-71
2021/01/13 07:22:26;;;;;;;14.07;5.15;;;;;;;-1.21;92.46;99006.00;4944351;29;20032;-70
2021/01/13 07:24:55;;;;;;;11.10;4.60;;;;;;;-1.30;92.53;99001.47;4937731;29;20035;-69
2021/01/13 07:27:22;;;;;;;11.88;4.30;;;;;;;-1.21;92.44;99019.28;4938687;29;20142;-70
2021/01/13 07:29:48;;;;;;;9.90;4.00;;;;;;;-1.21;92.51;99023.75;4946558;29;20082;-70
2021/01/13 07:32:20;;;;;;;13.63;4.38;;;;;;;-1.24;91.89;99014.22;4939673;29;20110;-70
2021/01/13 07:34:53;;;;;;;12.35;4.38;;;;;;;-1.04;91.44;99015.28;4941282;29;20079;-70
2021/01/13 07:37:23;;;;;;;10.10;4.22;;;;;;;-0.94;91.90;99023.34;4948112;29;20031;-70
2021/01/13 07:40:10;;;;;;;12.32;4.18;;;;;;;-0.76;91.13;99024.50;4939593;28;20027;-70
2021/01/13 07:42:38;;;;;;;11.73;4.05;;;;;;;-0.57;90.40;99029.13;4951627;28;20446;-69
2021/01/13 07:45:09;;;;;;;10.60;4.15;;;;;;;-0.39;90.26;99036.53;4963136;28;20034;-71
2021/01/13 07:48:14;;;;;;;9.75;4.25;;;;;;;-0.27;89.79;99031.03;4956942;28;20035;-69
2021/01/13 07:50:50;;;;;;;9.02;4.68;;;;;;;-0.16;88.44;99026.63;4949550;29;20038;-70
2021/01/13 07:53:24;;;;;;;14.70;5.10;;;;;;;0.15;88.33;99030.19;4955049;28;20036;-73
2021/01/13 07:56:10;;;;;;;8.82;4.32;;;;;;;0.20;87.30;99028.81;4950019;28;20074;-73
2021/01/13 07:58:36;;;;;;;11.48;5.75;;;;;;;0.19;86.60;99028.97;4950493;28;20439;-74
2021/01/13 08:01:30;;;;;;;20.52;6.40;;;;;;;0.19;86.55;99044.91;4954969;28;20118;-73
2021/01/13 08:04:29;;;;;;;13.38;5.13;;;;;;;0.68;84.89;99047.78;4970841;28;20133;-72
2021/01/13 08:06:56;;;;;;;;;;;;;;;1.21;83.66;99036.88;4977516;29;20023;-69
2021/01/13 08:09:22;;;;;;;14.55;4.80;;;;;;;1.06;82.83;99028.41;4961155;28;19934;-69
2021/01/13 08:12:07;;;;;;;14.15;5.70;;;;;;;1.38;83.17;99043.34;4970142;28;20047;-69
2021/01/13 08:15:05;;;;;;;12.95;4.72;;;;;;;1.15;82.98;99014.25;4981130;28;20071;-72
2021/01/13 08:18:12;;;;;;;12.70;4.53;;;;;;;1.18;82.16;99038.00;4976157;28;20018;-70
2021/01/13 08:21:01;;;;;;;10.27;4.93;;;;;;;1.44;82.37;99042.78;4974829;28;20027;-70
2021/01/13 08:23:37;;;;;;;;;;;;;;;1.68;82.67;99047.72;4977687;28;20038;-71
2021/01/13 08:26:02;;;;;;;9.55;3.80;;;;;;;1.87;80.03;99053.03;4959211;28;19923;-72
2021/01/13 08:28:43;;;;;;;13.27;3.97;;;;;;;2.51;80.22;99055.97;4959526;29;20031;-72
2021/01/13 08:31:09;;;;;;;8.65;3.65;;;;;;;3.88;73.23;99055.00;4972043;28;20043;-72
2021/01/13 08:33:37;;;;;;;7.88;3.13;;;;;;;5.94;66.50;99046.84;4940962;29;20032;-73
2021/01/13 08:36:08;;;;;;;11.68;4.00;;;;;;;6.34;66.98;99011.06;4943148;29;20031;-73
2021/01/13 08:38:34;;;;;;;8.55;3.40;;;;;;;6.66;62.94;99052.31;4950334;28;20483;-71
2021/01/13 08:41:20;;;;;;;11.05;4.30;;;;;;;8.21;58.61;99036.28;4945304;28;20035;-71
2021/01/13 08:44:07;;;;;;;11.25;4.13;;;;;;;8.65;57.18;99030.16;4943806;28;20086;-70
2021/01/13 08:46:40;;;;;;;9.73;4.38;;;;;;;9.12;55.08;99035.16;4942949;28;20494;-71
2021/01/13 08:49:06;;;;;;;10.52;4.43;;;;;;;9.25;56.13;99023.69;4942111;28;20080;-71
2021/01/13 08:51:33;;;;;;;10.45;3.78;;;;;;;9.54;53.82;99032.72;4943235;28;20031;-71
2021/01/13 08:54:18;;;;;;;10.65;3.92;;;;;;;10.18;52.94;99048.94;4943378;28;20027;-71
2021/01/13 08:56:59;;;;;;;10.50;4.13;;;;;;;9.06;56.78;99053.94;4945662;28;20024;-71
2021/01/13 08:59:37;;;;;;;7.32;3.63;;;;;;;10.73;52.98;99050.00;4941493;28;20074;-71
2021/01/13 09:02:08;;;;;;;8.63;3.53;;;;;;;10.22;53.35;99044.00;4940015;28;20031;-71
2021/01/13 09:04:46;;;;;;;8.45;4.18;;;;;;;10.45;53.43;99046.47;4957268;28;20034;-71
2021/01/13 09:07:17;;;;;;;12.07;3.15;;;;;;;8.95;54.51;99045.28;4942810;28;20121;-71
2021/01/13 09:10:06;;;;;;;9.00;3.00;;;;;;;5.64;63.02;99049.16;4947732;28;20107;-70
2021/01/13 09:12:33;;;;;;;14.60;2.93;;;;;;;4.23;67.89;99055.09;4944361;28;20113;-70
2021/01/13 09:15:07;;;;;;;9.68;2.70;;;;;;;3.56;70.46;99047.50;4941422;28;20065;-73
2021/01/13 09:17:38;;;;;;;7.45;2.80;;;;;;;4.11;69.85;99058.03;4942901;28;20026;-72
2021/01/13 09:20:17;;;;;;;9.68;2.60;;;;;;;6.24;64.07;99031.91;4945732;28;20032;-75
2021/01/13 09:22:52;;;;;;;7.03;2.50;;;;;;;6.75;61.19;99029.75;4942435;28;20040;-72
2021/01/13 09:25:18;;;;;;;6.18;2.40;;;;;;;7.33;61.40;99048.34;4956122;28;20102;-74
2021/01/13 09:27:52;;;;;;;10.60;2.92;;;;;;;9.08;57.06;99036.53;4956800;28;20031;-77
2021/01/13 09:30:28;;;;;;;9.60;3.30;;;;;;;11.31;51.25;99029.91;4954654;28;20377;-76
2021/01/13 09:32:56;;;;;;;10.13;3.88;;;;;;;12.46;49.25;99006.31;4952617;28;20463;-76
2021/01/13 09:35:27;;;;;;;8.80;3.80;;;;;;;10.71;50.57;99024.19;4949936;29;20035;-73
2021/01/13 09:37:58;;;;;;;9.93;4.10;;;;;;;11.59;49.29;99038.75;4959297;28;20027;-71
2021/01/13 09:40:43;;;;;;;8.48;3.80;;;;;;;10.07;53.14;99027.84;4954438;28;20103;-71
2021/01/13 09:43:27;;;;;;;9.30;4.15;;;;;;;10.97;52.55;99039.75;4950103;29;20486;-70
2021/01/13 09:45:53;;;;;;;11.18;4.55;;;;;;;10.31;52.34;99057.19;4953317;28;20035;-72
2021/01/13 09:48:19;;;;;;;9.88;4.35;;;;;;;9.85;54.70;99064.84;4950044;28;20027;-70
2021/01/13 09:50:46;;;;;;;11.98;5.57;;;;;;;8.20;57.83;99065.09;4954626;28;20043;-69
2021/01/13 09:53:14;;;;;;;9.55;3.55;;;;;;;6.34;62.81;99062.13;4956278;28;20027;-68
2021/01/13 09:55:40;;;;;;;9.07;3.70;;;;;;;4.50;69.07;99078.22;4942900;28;20059;-68
2021/01/13 09:58:16;;;;;;;7.65;3.65;;;;;;;3.36;72.87;99073.56;4935828;29;20032;-71
2021/01/13 10:00:41;;;;;;;10.40;3.55;;;;;;;2.88;75.13;99074.66;4960931;29;20095;-79
2021/01/13 10:03:10;;;;;;;10.30;3.55;;;;;;;2.35;76.81;99061.91;4960888;28;20637;-79
2021/01/13 10:05:36;;;;;;;11.02;3.40;;;;;;;2.54;76.86;99061.00;4988196;28;20081;-76
2021/01/13 10:08:01;;;;;;;8.52;3.08;;;;;;;2.62;75.94;99053.97;4948486;28;20498;-75
2021/01/13 10:10:27;;;;;;;8.05;2.88;;;;;;;2.46;77.13;99047.56;4962613;28;20030;-74
2021/01/13 10:12:53;;;;;;;8.40;3.10;;;;;;;2.71;76.03;99072.78;4950453;28;20023;-75
2021/01/13 10:15:21;;;;;;;6.95;2.97;;;;;;;2.65;76.36;99071.53;4949803;28;20055;-78
2021/01/13 10:17:47;;;;;;;8.90;3.10;;;;;;;2.57;76.74;99055.41;4954943;28;20031;-77
2021/01/13 10:20:16;;;;;;;8.57;3.58;;;;;;;2.32;77.85;99041.69;4956640;28;20046;-77
2021/01/13 10:22:44;;;;;;;9.95;3.22;;;;;;;2.60;77.69;99060.44;4956827;28;20578;-78
2021/01/13 10:25:10;;;;;;;15.38;3.55;;;;;;;2.39;77.63;99044.63;4948876;28;20545;-72
2021/01/13 10:27:42;;;;;;;10.60;3.20;;;;;;;2.12;78.43;99029.38;4949136;28;20027;-75
2021/01/13 10:30:11;;;;;;;14.15;3.33;;;;;;;2.39;77.79;99045.47;4963024;28;20117;-73
2021/01/13 10:32:50;;;;;;;8.63;3.00;;;;;;;2.41;78.22;99040.84;4946775;28;20111;-71
2021/01/13 10:35:17;;;;;;;;;;;;;;;2.61;78.24;99054.09;4944819;28;20283;-67
2021/01/13 10:38:03;;;;;;;9.27;3.55;;;;;;;2.51;78.59;99048.78;4949115;28;19918;-75
2021/01/13 10:40:29;;;;;;;8.68;3.03;;;;;;;2.35;78.72;99030.72;4956862;28;20035;-75
2021/01/13 10:42:55;;;;;;;7.88;3.25;;;;;;;2.79;77.62;99054.19;4953028;28;20393;-71
2021/01/13 10:45:22;;;;;;;11.73;3.90;;;;;;;2.60;78.00;99044.44;4955086;28;20074;-70
2021/01/13 10:48:02;;;;;;;10.07;3.42;;;;;;;2.62;78.46;99035.28;4956908;28;20027;-70
2021/01/13 10:50:29;;;;;;;9.93;3.92;;;;;;;2.68;77.73;99039.19;4942945;28;20108;-71
2021/01/13 10:52:57;;;;;;;6.93;3.58;;;;;;;2.64;78.64;99022.59;4937273;29;20036;-71
2021/01/13 10:55:25;;;;;;;7.78;3.60;;;;;;;2.95;77.86;99026.81;4938361;28;20095;-70
2021/01/13 10:57:51;;;;;;;7.03;3.17;;;;;;;3.26;77.29;99036.19;4946739;29;20038;-72
2021/01/13 11:00:17;;;;;;;7.57;2.85;;;;;;;3.11;76.07;99012.78;4936404;28;20127;-71
2021/01/13 11:02:56;;;;;;;6.93;2.70;;;;;;;2.83;76.97;99028.88;4940575;28;20081;-70
2021/01/13 11:05:22;;;;;;;15.40;5.15;;;;;;;2.89;76.91;99033.59;4943970;29;20471;-70
2021/01/13 11:07:51;;;;;;;9.13;3.78;;;;;;;2.95;77.59;99026.81;4961522;28;20031;-72
2021/01/13 11:10:17;;;;;;;7.22;3.10;;;;;;;2.96;76.81;99001.75;4945751;29;20507;-72
2021/01/13 11:12:43;;;;;;;6.90;2.97;;;;;;;3.09;76.92;99023.63;4945139;28;20078;-71
2021/01/13 11:15:10;;;;;;;11.23;2.92;;;;;;;2.84;77.41;99023.34;4952575;28;20062;-70
2021/01/13 11:17:36;;;;;;;6.53;2.40;;;;;;;2.86;75.95;99028.56;4951820;28;20489;-71
2021/01/13 11:20:04;;;;;;;14.07;2.65;;;;;;;2.96;76.32;99007.97;4947558;28;20535;-70
2021/01/13 11:22:48;;;;;;;11.88;2.00;;;;;;;2.73;76.65;99007.53;4942889;28;20143;-70
2021/01/13 11:25:20;;;;;;;7.05;1.85;;;;;;;2.99;76.35;99017.53;4952014;28;20035;-71
2021/01/13 11:28:00;;;;;;;5.65;2.13;;;;;;;2.77;76.93;99003.56;4950943;28;20043;-71
2021/01/13 11:30:27;;;;;;;9.25;2.15;;;;;;;2.68;77.38;99001.78;4949628;29;20678;-71
2021/01/13 11:32:54;;;;;;;6.45;1.90;;;;;;;2.50;77.89;99003.56;4945429;28;20416;-71
2021/01/13 11:35:31;;;;;;;8.95;2.17;;;;;;;2.53;77.95;99008.59;4944855;28;20038;-70
2021/01/13 11:38:23;;;;;;;4.88;1.70;;;;;;;2.49;77.79;98994.72;4950891;28;20042;-71
2021/01/13 11:41:04;;;;;;;9.32;2.00;;;;;;;2.44;77.80;99002.31;4961145;28;20042;-70
2021/01/13 11:43:41;;;;;;;3.95;1.70;;;;;;;2.68;77.60;98993.78;4960911;28;20057;-71
2021/01/13 11:46:27;;;;;;;5.05;1.85;;;;;;;2.82;76.16;98990.59;4940627;29;20379;-71
2021/01/13 11:48:52;;;;;;;16.60;1.70;;;;;;;3.11;75.51;98992.25;4953781;28;20122;-71
2021/01/13 11:51:21;;;;;;;10.52;1.60;;;;;;;3.20;74.63;98994.03;4954333;28;20071;-70
2021/01/13 11:53:47;;;;;;;4.35;1.40;;;;;;;2.95;74.97;98976.03;4957371;28;20077;-70
2021/01/13 11:56:13;;;;;;;6.60;1.55;;;;;;;2.59;76.98;98983.97;4956910;28;20035;-71